createdAt,value
2017-10-01T00:00:45.331Z,12.60
2017-10-01T00:03:26.861Z,11.80
2017-10-01T00:05:55.997Z,12.73
2017-10-01T00:08:25.290Z,12.20
2017-10-01T00:10:54.427Z,13.20
2017-10-01T00:13:23.707Z,12.60
2017-10-01T00:15:52.871Z,12.40
2017-10-01T00:18:22.041Z,13.33
2017-10-01T00:20:51.185Z,11.57
2017-10-01T00:23:20.281Z,12.00
2017-10-01T00:25:49.442Z,12.40
2017-10-01T00:28:18.572Z,11.03
2017-10-01T00:30:49.685Z,10.50
2017-10-01T00:33:31.144Z,11.90
2017-10-01T00:36:00.445Z,12.97
2017-10-01T00:38:29.665Z,12.13
2017-10-01T00:40:58.774Z,12.00
2017-10-01T00:43:28.170Z,12.17
2017-10-01T00:46:04.277Z,13.70
2017-10-01T00:48:33.518Z,11.63
2017-10-01T00:51:02.688Z,12.17
2017-10-01T00:53:39.633Z,12.07
2017-10-01T00:56:14.863Z,12.63
2017-10-01T00:58:44.141Z,11.87
2017-10-01T01:01:13.362Z,12.63
2017-10-01T01:03:54.417Z,12.03
2017-10-01T01:06:29.588Z,12.63
2017-10-01T01:08:59.411Z,11.50
2017-10-01T01:11:28.569Z,12.97
2017-10-01T01:14:10.572Z,11.13
2017-10-01T01:16:39.732Z,10.53
2017-10-01T01:19:08.960Z,11.43
2017-10-01T01:21:38.158Z,11.87
2017-10-01T01:24:07.318Z,11.00
2017-10-01T01:26:36.488Z,11.10
2017-10-01T01:29:05.637Z,11.33
2017-10-01T01:31:35.960Z,11.70
2017-10-01T01:34:05.425Z,11.57
2017-10-01T01:36:34.620Z,11.47
2017-10-01T01:39:03.791Z,12.00
2017-10-01T01:41:32.964Z,11.50
2017-10-01T01:44:02.269Z,12.13
2017-10-01T01:46:31.400Z,8.87
2017-10-01T01:49:00.553Z,11.40
2017-10-01T01:51:29.725Z,10.40
2017-10-01T01:53:58.933Z,10.93
2017-10-01T01:56:28.122Z,12.40
2017-10-01T01:58:57.524Z,11.33
2017-10-01T02:01:26.786Z,11.60
2017-10-01T02:03:56.109Z,11.40
2017-10-01T02:06:25.238Z,12.13
2017-10-01T02:08:54.486Z,11.50
2017-10-01T02:11:23.650Z,12.30
2017-10-01T02:13:53.087Z,11.90
2017-10-01T02:16:22.281Z,10.93
2017-10-01T02:18:52.577Z,11.13
2017-10-01T02:21:21.708Z,11.60
2017-10-01T02:23:57.839Z,10.67
2017-10-01T02:26:27.150Z,11.23
2017-10-01T02:28:56.397Z,10.23
2017-10-01T02:31:25.555Z,9.97
2017-10-01T02:33:54.757Z,12.17
2017-10-01T02:36:24.089Z,12.20
2017-10-01T02:38:53.255Z,11.80
2017-10-01T02:41:23.146Z,12.20
2017-10-01T02:43:52.278Z,11.70
2017-10-01T02:46:21.455Z,12.10
2017-10-01T02:48:58.191Z,10.80
2017-10-01T02:51:27.300Z,11.73
2017-10-01T02:53:56.845Z,11.70
2017-10-01T02:56:25.997Z,11.17
2017-10-01T02:59:01.118Z,12.20
2017-10-01T03:01:30.564Z,12.60
2017-10-01T03:03:59.713Z,12.23
2017-10-01T03:06:28.858Z,11.60
2017-10-01T03:08:57.997Z,10.90
2017-10-01T03:11:27.193Z,10.90
2017-10-01T03:13:56.378Z,11.27
2017-10-01T03:16:25.541Z,13.00
2017-10-01T03:18:54.696Z,11.77
2017-10-01T03:21:23.905Z,12.10
2017-10-01T03:23:53.106Z,10.03
2017-10-01T03:26:35.587Z,11.17
2017-10-01T03:29:04.704Z,12.03
2017-10-01T03:31:35.081Z,10.80
2017-10-01T03:34:04.265Z,12.00
2017-10-01T03:36:33.428Z,12.20
2017-10-01T03:39:02.658Z,11.67
2017-10-01T03:41:31.874Z,11.70
2017-10-01T03:44:01.046Z,12.23
2017-10-01T03:46:43.785Z,12.43
2017-10-01T03:49:13.034Z,11.17
2017-10-01T03:51:48.449Z,9.90
2017-10-01T03:54:17.616Z,11.40
2017-10-01T03:56:46.768Z,10.57
2017-10-01T03:59:15.928Z,10.63
2017-10-01T04:01:52.897Z,9.90
2017-10-01T04:04:29.873Z,11.03
2017-10-01T04:06:59.045Z,10.47
2017-10-01T04:09:28.205Z,10.20
2017-10-01T04:11:57.339Z,10.10
2017-10-01T04:14:26.452Z,9.63
2017-10-01T04:16:55.653Z,8.80
2017-10-01T04:19:26.586Z,9.80
2017-10-01T04:21:55.720Z,9.57
2017-10-01T04:24:24.894Z,9.90
2017-10-01T04:26:53.990Z,8.67
2017-10-01T04:29:23.107Z,9.63
2017-10-01T04:31:57.145Z,8.57
2017-10-01T04:34:32.412Z,9.37
2017-10-01T04:37:01.575Z,8.50
2017-10-01T04:39:31.037Z,7.53
2017-10-01T04:42:00.222Z,7.80
2017-10-01T04:44:29.647Z,6.80
2017-10-01T04:47:10.790Z,6.43
2017-10-01T04:49:40.846Z,6.07
2017-10-01T04:52:09.981Z,5.97
2017-10-01T04:54:39.118Z,6.37
2017-10-01T04:57:08.262Z,4.83
2017-10-01T04:59:38.658Z,5.17
2017-10-01T05:02:07.782Z,4.27
2017-10-01T05:04:36.961Z,4.33
2017-10-01T05:07:12.138Z,4.60
2017-10-01T05:09:41.272Z,3.80
2017-10-01T05:12:24.270Z,3.70
2017-10-01T05:14:53.395Z,5.87
2017-10-01T05:17:22.541Z,4.13
2017-10-01T05:19:51.700Z,3.63
2017-10-01T05:22:21.428Z,3.60
2017-10-01T05:25:04.590Z,4.00
2017-10-01T05:27:42.786Z,3.80
2017-10-01T05:30:11.977Z,3.57
2017-10-01T05:32:41.082Z,3.80
2017-10-01T05:35:10.222Z,4.03
2017-10-01T05:37:39.324Z,3.77
2017-10-01T05:40:08.577Z,5.57
2017-10-01T05:42:37.722Z,5.10
2017-10-01T05:45:16.650Z,5.40
2017-10-01T05:47:47.560Z,5.70
2017-10-01T05:50:16.827Z,5.40
2017-10-01T05:52:50.607Z,6.00
2017-10-01T05:55:19.754Z,6.03
2017-10-01T05:57:48.890Z,5.73
2017-10-01T06:00:17.981Z,5.77
2017-10-01T06:02:48.185Z,5.97
2017-10-01T06:05:17.327Z,6.30
2017-10-01T06:07:46.511Z,5.40
2017-10-01T06:10:15.634Z,5.77
2017-10-01T06:12:45.132Z,4.90
2017-10-01T06:15:14.254Z,5.40
2017-10-01T06:17:43.432Z,5.20
2017-10-01T06:20:28.020Z,5.50
2017-10-01T06:23:04.711Z,4.77
2017-10-01T06:25:40.159Z,5.43
2017-10-01T06:28:09.279Z,5.60
2017-10-01T06:30:46.201Z,4.90
2017-10-01T06:33:23.156Z,5.10
2017-10-01T06:35:59.102Z,5.40
2017-10-01T06:38:28.253Z,5.30
2017-10-01T06:41:03.509Z,5.63
2017-10-01T06:43:32.659Z,6.00
2017-10-01T06:46:01.933Z,4.73
2017-10-01T06:48:37.094Z,4.70
2017-10-01T06:51:19.025Z,5.73
2017-10-01T06:53:48.153Z,5.10
2017-10-01T06:56:24.136Z,5.57
2017-10-01T06:58:53.316Z,4.83
2017-10-01T07:01:37.829Z,6.23
2017-10-01T07:04:13.246Z,7.20
2017-10-01T07:06:42.451Z,5.80
2017-10-01T07:09:11.588Z,5.90
2017-10-01T07:11:40.726Z,4.50
2017-10-01T07:14:10.000Z,3.70
2017-10-01T07:16:39.133Z,4.27
2017-10-01T07:19:17.837Z,4.93
2017-10-01T07:21:46.987Z,5.00
2017-10-01T07:24:16.109Z,5.27
2017-10-01T07:26:45.604Z,4.47
2017-10-01T07:29:14.752Z,5.07
2017-10-01T07:31:44.070Z,5.07
2017-10-01T07:34:13.169Z,4.17
2017-10-01T07:36:42.288Z,4.17
2017-10-01T07:39:11.419Z,3.77
2017-10-01T07:41:40.551Z,4.10
2017-10-01T07:44:24.099Z,3.77
2017-10-01T07:46:59.265Z,3.33
2017-10-01T07:49:28.453Z,4.10
2017-10-01T07:51:58.508Z,4.63
2017-10-01T07:54:27.716Z,3.00
2017-10-01T07:56:57.985Z,3.63
2017-10-01T07:59:27.136Z,4.30
2017-10-01T08:01:57.017Z,5.23
2017-10-01T08:04:34.223Z,4.93
2017-10-01T08:07:03.758Z,4.30
2017-10-01T08:09:33.909Z,4.20
2017-10-01T08:12:03.128Z,3.70
2017-10-01T08:14:32.354Z,5.40
2017-10-01T08:17:01.510Z,4.63
2017-10-01T08:19:31.425Z,4.20
2017-10-01T08:22:00.570Z,4.37
2017-10-01T08:24:29.813Z,5.30
2017-10-01T08:26:59.121Z,4.80
2017-10-01T08:29:30.586Z,4.13
2017-10-01T08:32:07.011Z,4.47
2017-10-01T08:34:46.253Z,3.90
2017-10-01T08:37:15.424Z,3.80
2017-10-01T08:39:44.727Z,3.97
2017-10-01T08:42:14.069Z,4.17
2017-10-01T08:44:48.026Z,3.80
2017-10-01T08:47:17.343Z,4.30
2017-10-01T08:49:46.489Z,4.83
2017-10-01T08:52:15.588Z,5.10
2017-10-01T08:54:51.841Z,5.57
2017-10-01T08:57:21.030Z,6.10
2017-10-01T08:59:50.165Z,5.10
2017-10-01T09:02:19.359Z,5.07
2017-10-01T09:04:48.738Z,5.00
2017-10-01T09:07:18.068Z,5.50
2017-10-01T09:09:47.209Z,6.20
2017-10-01T09:12:16.413Z,5.57
2017-10-01T09:14:45.749Z,5.47
2017-10-01T09:17:14.946Z,5.20
2017-10-01T09:19:44.124Z,5.20
2017-10-01T09:22:13.409Z,5.23
2017-10-01T09:24:42.562Z,5.57
2017-10-01T09:27:11.681Z,4.73
2017-10-01T09:29:40.816Z,5.87
2017-10-01T09:32:09.896Z,6.00
2017-10-01T09:34:38.991Z,5.30
2017-10-01T09:37:08.078Z,5.97
2017-10-01T09:39:38.023Z,5.20
2017-10-01T09:42:15.056Z,4.73
2017-10-01T09:44:44.194Z,5.67
2017-10-01T09:47:13.339Z,5.43
2017-10-01T09:49:49.633Z,4.90
2017-10-01T09:52:18.749Z,6.20
2017-10-01T09:55:01.345Z,6.20
2017-10-01T09:57:30.760Z,5.17
2017-10-01T09:59:59.967Z,5.37
2017-10-01T10:02:29.328Z,5.80
2017-10-01T10:04:58.452Z,5.40
2017-10-01T10:07:34.637Z,6.20
2017-10-01T10:10:03.758Z,4.97
2017-10-01T10:12:33.291Z,5.50
2017-10-01T10:15:02.589Z,6.10
2017-10-01T10:17:37.758Z,5.97
2017-10-01T10:20:19.286Z,5.73
2017-10-01T10:22:48.405Z,6.10
2017-10-01T10:25:17.580Z,6.27
2017-10-01T10:27:46.770Z,6.13
2017-10-01T10:30:15.886Z,5.77
2017-10-01T10:32:45.263Z,5.30
2017-10-01T10:35:21.346Z,6.37
2017-10-01T10:37:50.433Z,5.70
2017-10-01T10:40:19.564Z,6.00
2017-10-01T10:42:48.761Z,7.90
2017-10-01T10:45:17.865Z,6.30
2017-10-01T10:47:47.044Z,5.83
2017-10-01T10:50:16.237Z,5.63
2017-10-01T10:52:45.534Z,5.77
2017-10-01T10:55:14.657Z,6.83
2017-10-01T10:57:44.009Z,6.47
2017-10-01T11:00:13.185Z,7.03
2017-10-01T11:02:42.323Z,6.30
2017-10-01T11:05:17.598Z,7.23
2017-10-01T11:07:48.437Z,5.00
2017-10-01T11:10:17.591Z,7.33
2017-10-01T11:12:46.699Z,6.40
2017-10-01T11:15:33.882Z,6.77
2017-10-01T11:18:03.077Z,5.90
2017-10-01T11:20:32.202Z,6.90
2017-10-01T11:23:01.390Z,6.27
2017-10-01T11:25:31.559Z,6.50
2017-10-01T11:28:01.692Z,6.03
2017-10-01T11:30:30.837Z,6.00
2017-10-01T11:33:00.294Z,6.47
2017-10-01T11:35:29.444Z,6.47
2017-10-01T11:37:58.643Z,5.27
2017-10-01T11:40:27.972Z,6.50
2017-10-01T11:42:57.196Z,5.57
2017-10-01T11:45:26.295Z,5.60
2017-10-01T11:48:08.994Z,5.37
2017-10-01T11:50:38.158Z,5.03
2017-10-01T11:53:07.770Z,5.23
2017-10-01T11:55:36.921Z,5.20
2017-10-01T11:58:06.079Z,5.20
2017-10-01T12:00:35.238Z,6.87
2017-10-01T12:03:12.982Z,5.97
2017-10-01T12:05:42.197Z,5.87
2017-10-01T12:08:11.675Z,6.60
2017-10-01T12:10:40.782Z,6.13
2017-10-01T12:13:09.876Z,6.27
2017-10-01T12:15:58.811Z,4.87
2017-10-01T12:18:40.132Z,5.50
2017-10-01T12:21:09.440Z,4.60
2017-10-01T12:23:38.577Z,4.93
2017-10-01T12:26:08.001Z,6.17
2017-10-01T12:28:37.278Z,5.57
2017-10-01T12:31:07.616Z,5.20
2017-10-01T12:33:38.581Z,5.60
2017-10-01T12:36:07.949Z,5.33
2017-10-01T12:38:45.914Z,5.67
2017-10-01T12:41:15.048Z,6.63
2017-10-01T12:43:44.169Z,5.20
2017-10-01T12:46:13.809Z,5.43
2017-10-01T12:48:56.572Z,4.97
2017-10-01T12:51:25.738Z,4.80
2017-10-01T12:53:55.224Z,5.03
2017-10-01T12:56:24.408Z,3.63
2017-10-01T12:58:53.516Z,3.90
2017-10-01T13:01:28.524Z,4.40
2017-10-01T13:03:58.014Z,4.70
2017-10-01T13:06:27.122Z,4.10
2017-10-01T13:08:56.232Z,4.83
2017-10-01T13:11:28.642Z,3.70
2017-10-01T13:14:12.976Z,4.67
2017-10-01T13:16:42.117Z,4.23
2017-10-01T13:19:11.262Z,4.30
2017-10-01T13:21:40.365Z,4.80
2017-10-01T13:24:14.750Z,4.27
2017-10-01T13:26:43.900Z,4.63
2017-10-01T13:29:13.155Z,4.30
2017-10-01T13:31:42.323Z,4.50
2017-10-01T13:34:12.070Z,4.80
2017-10-01T13:36:41.976Z,4.23
2017-10-01T13:39:11.120Z,4.10
2017-10-01T13:41:42.135Z,4.57
2017-10-01T13:44:12.116Z,4.33
2017-10-01T13:46:41.229Z,4.60
2017-10-01T13:49:10.593Z,4.73
2017-10-01T13:51:40.143Z,4.80
2017-10-01T13:54:15.440Z,5.20
2017-10-01T13:56:52.757Z,4.50
2017-10-01T13:59:25.293Z,4.20
2017-10-01T14:01:54.581Z,4.63
2017-10-01T14:04:23.844Z,4.13
2017-10-01T14:06:53.066Z,4.03
2017-10-01T14:09:22.200Z,5.60
2017-10-01T14:11:57.346Z,4.10
2017-10-01T14:14:26.455Z,4.07
2017-10-01T14:16:55.561Z,4.70
2017-10-01T14:19:24.689Z,5.10
2017-10-01T14:21:53.792Z,4.47
2017-10-01T14:24:23.642Z,4.03
2017-10-01T14:26:53.569Z,4.30
2017-10-01T14:29:26.103Z,3.83
2017-10-01T14:31:55.416Z,3.90
2017-10-01T14:34:24.549Z,4.20
2017-10-01T14:36:53.689Z,3.73
2017-10-01T14:39:23.210Z,3.30
2017-10-01T14:41:52.352Z,4.00
2017-10-01T14:44:21.630Z,4.47
2017-10-01T14:46:50.829Z,4.93
2017-10-01T14:49:23.244Z,4.37
2017-10-01T14:52:05.514Z,4.23
2017-10-01T14:54:35.029Z,3.40
2017-10-01T14:57:05.766Z,4.00
2017-10-01T14:59:35.834Z,4.27
2017-10-01T15:02:20.149Z,4.17
2017-10-01T15:04:50.364Z,4.23
2017-10-01T15:07:20.142Z,3.50
2017-10-01T15:09:50.268Z,3.87
2017-10-01T15:12:25.660Z,4.70
2017-10-01T15:14:55.221Z,4.20
2017-10-01T15:17:30.219Z,3.83
2017-10-01T15:19:59.577Z,3.80
2017-10-01T15:22:41.204Z,4.47
2017-10-01T15:25:10.423Z,3.43
2017-10-01T15:27:42.531Z,3.40
2017-10-01T15:30:25.482Z,3.37
2017-10-01T15:32:54.679Z,3.83
2017-10-01T15:35:31.778Z,3.33
2017-10-01T15:38:00.992Z,3.40
2017-10-01T15:40:30.278Z,3.60
2017-10-01T15:42:59.676Z,3.70
2017-10-01T15:45:28.753Z,2.90
2017-10-01T15:48:03.986Z,3.40
2017-10-01T15:50:33.136Z,3.00
2017-10-01T15:53:03.449Z,3.83
2017-10-01T15:55:32.627Z,3.50
2017-10-01T15:58:03.075Z,3.27
2017-10-01T16:00:32.645Z,3.20
2017-10-01T16:03:02.031Z,3.37
2017-10-01T16:05:31.296Z,2.93
2017-10-01T16:08:02.337Z,3.47
2017-10-01T16:10:34.434Z,3.53
2017-10-01T16:13:03.610Z,3.10
2017-10-01T16:15:32.896Z,3.70
2017-10-01T16:18:02.389Z,3.70
2017-10-01T16:20:38.761Z,3.30
2017-10-01T16:23:07.902Z,3.77
2017-10-01T16:25:37.134Z,3.40
2017-10-01T16:28:06.257Z,2.70
2017-10-01T16:30:35.381Z,3.60
2017-10-01T16:33:04.662Z,3.80
2017-10-01T16:35:33.904Z,3.93
2017-10-01T16:38:03.283Z,4.07
2017-10-01T16:40:41.591Z,2.93
2017-10-01T16:43:11.257Z,3.13
2017-10-01T16:45:41.457Z,4.43
2017-10-01T16:48:12.281Z,3.97
2017-10-01T16:50:41.469Z,3.40
2017-10-01T16:53:14.132Z,3.23
2017-10-01T16:55:43.258Z,3.47
2017-10-01T16:58:26.261Z,2.77
2017-10-01T17:00:55.681Z,3.27
2017-10-01T17:03:25.369Z,2.73
2017-10-01T17:06:01.694Z,2.83
2017-10-01T17:08:30.817Z,3.50
2017-10-01T17:11:00.576Z,4.10
2017-10-01T17:13:29.738Z,4.40
2017-10-01T17:15:58.860Z,4.33
2017-10-01T17:18:41.716Z,5.10
2017-10-01T17:21:10.866Z,4.17
2017-10-01T17:23:40.046Z,4.23
2017-10-01T17:26:09.118Z,4.37
2017-10-01T17:28:38.298Z,3.63
2017-10-01T17:31:08.694Z,3.77
2017-10-01T17:33:38.841Z,3.67
2017-10-01T17:36:08.497Z,4.03
2017-10-01T17:38:37.643Z,3.50
2017-10-01T17:41:20.212Z,3.30
2017-10-01T17:43:55.424Z,3.90
2017-10-01T17:46:28.751Z,4.20
2017-10-01T17:48:58.125Z,3.83
2017-10-01T17:51:34.938Z,4.20
2017-10-01T17:54:17.491Z,4.00
2017-10-01T17:56:54.955Z,4.13
2017-10-01T17:59:24.225Z,4.00
2017-10-01T18:01:53.456Z,4.53
2017-10-01T18:04:22.686Z,4.30
2017-10-01T18:06:52.169Z,4.77
2017-10-01T18:09:22.251Z,3.50
2017-10-01T18:11:51.827Z,4.00
2017-10-01T18:14:28.584Z,4.40
2017-10-01T18:16:57.733Z,4.47
2017-10-01T18:19:27.359Z,3.77
2017-10-01T18:21:56.479Z,4.10
2017-10-01T18:24:26.557Z,4.10
2017-10-01T18:26:56.389Z,3.70
2017-10-01T18:29:25.545Z,4.20
2017-10-01T18:32:08.015Z,4.20
2017-10-01T18:34:37.156Z,4.70
2017-10-01T18:37:06.453Z,4.30
2017-10-01T18:39:35.694Z,4.20
2017-10-01T18:42:05.055Z,4.67
2017-10-01T18:44:34.256Z,4.30
2017-10-01T18:47:03.421Z,4.90
2017-10-01T18:49:32.523Z,3.90
2017-10-01T18:52:01.739Z,4.67
2017-10-01T18:54:30.851Z,4.40
2017-10-01T18:57:13.050Z,5.27
2017-10-01T18:59:42.183Z,4.57
2017-10-01T19:02:11.337Z,4.70
2017-10-01T19:04:40.545Z,4.30
2017-10-01T19:07:11.004Z,4.43
2017-10-01T19:09:40.338Z,4.73
2017-10-01T19:12:09.499Z,4.60
2017-10-01T19:14:40.210Z,4.20
2017-10-01T19:17:09.365Z,4.43
2017-10-01T19:19:38.714Z,4.40
2017-10-01T19:22:07.939Z,4.27
2017-10-01T19:24:39.816Z,4.90
2017-10-01T19:27:08.964Z,4.40
2017-10-01T19:29:46.167Z,5.03
2017-10-01T19:32:16.112Z,4.67
2017-10-01T19:34:45.453Z,4.17
2017-10-01T19:37:15.001Z,4.13
2017-10-01T19:39:44.387Z,4.40
2017-10-01T19:42:14.046Z,3.80
2017-10-01T19:44:43.316Z,3.97
2017-10-01T19:47:12.704Z,4.63
2017-10-01T19:49:49.393Z,4.27
2017-10-01T19:52:20.443Z,4.40
2017-10-01T19:54:49.710Z,4.43
2017-10-01T19:57:18.812Z,4.43
2017-10-01T19:59:48.076Z,4.37
2017-10-01T20:02:19.090Z,4.27
2017-10-01T20:04:49.730Z,4.93
2017-10-01T20:07:34.358Z,4.03
2017-10-01T20:10:03.576Z,4.20
2017-10-01T20:12:32.721Z,4.17
2017-10-01T20:15:02.014Z,4.97
2017-10-01T20:17:31.325Z,4.20
2017-10-01T20:20:08.267Z,4.30
2017-10-01T20:22:37.507Z,4.10
2017-10-01T20:25:06.870Z,4.40
2017-10-01T20:27:35.998Z,4.40
2017-10-01T20:30:05.406Z,4.57
2017-10-01T20:32:34.498Z,3.67
2017-10-01T20:35:03.843Z,4.30
2017-10-01T20:37:42.373Z,4.50
2017-10-01T20:40:23.709Z,4.20
2017-10-01T20:42:53.174Z,4.10
2017-10-01T20:45:22.313Z,4.03
2017-10-01T20:47:51.456Z,4.13
2017-10-01T20:50:28.818Z,3.43
2017-10-01T20:52:58.662Z,4.40
2017-10-01T20:55:28.067Z,4.30
2017-10-01T20:58:03.341Z,5.40
2017-10-01T21:00:32.462Z,4.10
2017-10-01T21:03:09.361Z,4.70
2017-10-01T21:05:38.452Z,4.30
2017-10-01T21:08:07.626Z,5.00
2017-10-01T21:10:36.814Z,4.80
2017-10-01T21:13:13.239Z,4.37
2017-10-01T21:15:49.410Z,5.13
2017-10-01T21:18:18.600Z,4.40
2017-10-01T21:20:47.734Z,4.20
2017-10-01T21:23:16.853Z,4.60
2017-10-01T21:25:47.146Z,4.73
2017-10-01T21:28:16.402Z,4.30
2017-10-01T21:30:45.690Z,4.53
2017-10-01T21:33:15.187Z,5.40
2017-10-01T21:35:59.221Z,4.17
2017-10-01T21:38:28.357Z,3.97
2017-10-01T21:40:57.506Z,4.60
2017-10-01T21:43:26.681Z,4.43
2017-10-01T21:45:55.978Z,4.60
2017-10-01T21:48:25.148Z,4.50
2017-10-01T21:50:54.361Z,4.80
2017-10-01T21:53:23.462Z,4.30
2017-10-01T21:55:56.461Z,4.40
2017-10-01T21:58:25.925Z,4.67
2017-10-01T22:00:55.051Z,4.63
2017-10-01T22:03:24.217Z,4.73
2017-10-01T22:05:53.338Z,4.47
2017-10-01T22:08:22.494Z,4.43
2017-10-01T22:10:51.640Z,4.60
2017-10-01T22:13:20.982Z,4.50
2017-10-01T22:15:50.125Z,4.60
2017-10-01T22:18:19.205Z,5.40
2017-10-01T22:20:48.794Z,4.70
2017-10-01T22:23:17.887Z,5.33
2017-10-01T22:25:47.010Z,4.90
2017-10-01T22:28:28.167Z,4.97
2017-10-01T22:30:57.262Z,5.13
2017-10-01T22:33:26.398Z,4.23
2017-10-01T22:35:57.590Z,5.03
2017-10-01T22:38:26.699Z,4.70
2017-10-01T22:40:55.818Z,3.93
2017-10-01T22:43:24.940Z,4.87
2017-10-01T22:46:10.561Z,4.27
2017-10-01T22:48:39.772Z,4.07
2017-10-01T22:51:09.109Z,4.00
2017-10-01T22:53:38.814Z,4.57
2017-10-01T22:56:07.990Z,4.37
2017-10-01T22:58:37.162Z,4.17
2017-10-01T23:01:06.291Z,4.20
2017-10-01T23:03:35.404Z,4.90
2017-10-01T23:06:04.520Z,3.77
2017-10-01T23:08:34.414Z,4.20
2017-10-01T23:11:03.562Z,4.90
2017-10-01T23:13:32.696Z,3.57
2017-10-01T23:16:01.845Z,3.97
2017-10-01T23:18:31.021Z,4.07
2017-10-01T23:21:00.146Z,4.67
2017-10-01T23:23:42.885Z,4.27
2017-10-01T23:26:12.095Z,4.40
2017-10-01T23:28:41.210Z,4.23
2017-10-01T23:31:10.395Z,3.97
2017-10-01T23:33:39.538Z,4.10
2017-10-01T23:36:14.693Z,3.70
2017-10-01T23:38:43.817Z,4.10
2017-10-01T23:41:12.960Z,4.57
2017-10-01T23:43:42.108Z,3.97
2017-10-01T23:46:11.267Z,4.80
2017-10-01T23:48:43.885Z,4.40
2017-10-01T23:51:19.130Z,4.77
2017-10-01T23:53:48.255Z,4.27
2017-10-01T23:56:24.563Z,3.73
2017-10-01T23:58:53.713Z,4.00
